createdAt,value
2019-01-27T00:01:28.334Z,3.30
2019-01-27T00:06:34.410Z,3.40
2019-01-27T00:11:40.248Z,2.45
2019-01-27T00:16:47.282Z,2.62
2019-01-27T00:21:52.751Z,5.95
2019-01-27T00:26:58.653Z,11.10
2019-01-27T00:32:02.912Z,7.90
2019-01-27T00:37:08.834Z,12.63
2019-01-27T00:42:13.472Z,12.60
2019-01-27T00:47:18.161Z,9.53
2019-01-27T00:52:25.906Z,3.45
2019-01-27T00:57:30.902Z,3.35
2019-01-27T01:02:37.984Z,4.17
2019-01-27T01:07:46.660Z,3.98
2019-01-27T01:12:52.873Z,4.37
2019-01-27T01:17:58.475Z,4.75
2019-01-27T01:23:03.142Z,4.85
2019-01-27T01:28:08.281Z,4.83
2019-01-27T01:33:12.614Z,4.87
2019-01-27T01:38:20.355Z,24.20
2019-01-27T01:43:25.219Z,3.30
2019-01-27T01:48:33.363Z,4.80
2019-01-27T01:53:39.159Z,4.53
2019-01-27T01:58:44.664Z,5.95
2019-01-27T02:03:50.388Z,5.55
2019-01-27T02:08:56.082Z,6.70
2019-01-27T02:14:03.029Z,6.60
2019-01-27T02:19:07.727Z,5.87
2019-01-27T02:24:12.940Z,6.12
2019-01-27T02:29:20.366Z,7.15
2019-01-27T02:34:26.450Z,6.70
2019-01-27T02:39:32.679Z,6.12
2019-01-27T02:44:37.113Z,5.70
2019-01-27T02:49:42.494Z,6.40
2019-01-27T02:54:47.120Z,3.72
2019-01-27T02:59:52.834Z,5.30
2019-01-27T03:04:58.853Z,6.45
2019-01-27T03:10:05.027Z,5.40
2019-01-27T03:15:10.534Z,6.00
2019-01-27T03:20:15.182Z,5.03
2019-01-27T03:25:19.488Z,5.40
2019-01-27T03:30:26.434Z,5.33
2019-01-27T03:35:32.217Z,6.12
2019-01-27T03:40:38.848Z,5.00
2019-01-27T03:45:43.844Z,5.62
2019-01-27T03:50:48.404Z,4.97
2019-01-27T03:55:53.765Z,5.25
2019-01-27T04:00:58.155Z,5.12
2019-01-27T04:06:03.044Z,4.83
2019-01-27T04:11:07.939Z,5.53
2019-01-27T04:16:13.390Z,5.50
2019-01-27T04:21:17.954Z,5.45
2019-01-27T04:26:22.018Z,3.55
2019-01-27T04:31:26.432Z,4.58
2019-01-27T04:36:31.329Z,5.15
2019-01-27T04:41:38.291Z,5.50
2019-01-27T04:46:42.845Z,4.65
2019-01-27T04:51:47.169Z,5.55
2019-01-27T04:56:53.567Z,4.22
2019-01-27T05:01:59.425Z,4.67
2019-01-27T05:07:04.067Z,3.72
2019-01-27T05:12:08.394Z,4.70
2019-01-27T05:17:13.797Z,3.75
2019-01-27T05:22:20.703Z,4.95
2019-01-27T05:27:25.719Z,3.72
2019-01-27T05:32:50.348Z,11.70
2019-01-27T05:37:55.278Z,16.45
2019-01-27T05:43:00.630Z,16.85
2019-01-27T05:48:04.834Z,14.98
2019-01-27T05:53:10.866Z,15.55
2019-01-27T05:58:15.068Z,16.95
2019-01-27T06:03:19.944Z,16.37
2019-01-27T06:08:23.997Z,23.65
2019-01-27T06:13:33.330Z,17.37
2019-01-27T06:18:38.619Z,20.70
2019-01-27T06:23:43.724Z,22.55
2019-01-27T06:28:48.458Z,25.30
2019-01-27T06:34:06.313Z,20.88
2019-01-27T06:39:10.613Z,29.65
2019-01-27T06:44:15.224Z,20.75
2019-01-27T06:49:19.709Z,22.75
2019-01-27T06:54:23.970Z,17.50
2019-01-27T06:59:58.103Z,16.60
2019-01-27T07:05:15.452Z,22.87
2019-01-27T07:10:42.865Z,22.67
2019-01-27T07:16:12.542Z,19.07
2019-01-27T07:21:27.124Z,20.60
2019-01-27T07:26:53.505Z,20.77
2019-01-27T07:32:20.587Z,21.65
2019-01-27T07:37:36.370Z,22.22
2019-01-27T07:42:50.036Z,21.87
2019-01-27T07:48:23.218Z,25.80
2019-01-27T07:53:58.740Z,27.27
2019-01-27T07:59:33.608Z,26.57
2019-01-27T08:05:03.113Z,23.15
2019-01-27T08:10:36.976Z,24.45
2019-01-27T08:16:06.784Z,24.30
2019-01-27T08:21:40.105Z,23.92
2019-01-27T08:26:55.613Z,25.25
2019-01-27T08:32:06.974Z,26.62
2019-01-27T08:37:25.297Z,24.40
2019-01-27T08:42:48.805Z,25.23
2019-01-27T08:47:52.864Z,22.37
2019-01-27T08:52:57.238Z,22.20
2019-01-27T08:58:01.438Z,18.77
2019-01-27T09:03:16.908Z,17.15
2019-01-27T09:08:50.098Z,20.32
2019-01-27T09:14:10.911Z,20.23
2019-01-27T09:19:33.902Z,22.62
2019-01-27T09:24:49.223Z,22.17
2019-01-27T09:30:13.307Z,19.57
2019-01-27T09:35:27.821Z,19.80
2019-01-27T09:40:52.066Z,23.27
2019-01-27T09:46:22.365Z,27.90
2019-01-27T09:51:51.436Z,27.80
2019-01-27T09:57:18.054Z,23.30
2019-01-27T10:02:47.332Z,32.85
2019-01-27T10:08:13.344Z,27.17
2019-01-27T10:13:30.908Z,28.05
2019-01-27T10:19:00.835Z,28.35
2019-01-27T10:24:23.378Z,33.55
2019-01-27T10:30:02.842Z,21.20
2019-01-27T10:35:21.506Z,22.75
2019-01-27T10:40:54.778Z,18.52
2019-01-27T10:46:27.394Z,19.52
2019-01-27T10:51:44.126Z,22.20
2019-01-27T10:57:03.441Z,37.90
2019-01-27T11:02:36.716Z,22.37
2019-01-27T11:07:55.399Z,30.48
2019-01-27T11:13:31.512Z,26.50
2019-01-27T11:18:58.423Z,25.00
2019-01-27T11:24:23.080Z,21.70
2019-01-27T11:29:47.570Z,30.70
2019-01-27T11:35:26.179Z,22.67
2019-01-27T11:41:08.839Z,29.52
2019-01-27T11:46:31.207Z,22.95
2019-01-27T11:51:49.061Z,26.80
2019-01-27T11:56:54.171Z,20.35
2019-01-27T12:01:59.437Z,22.32
2019-01-27T12:07:07.133Z,26.10
2019-01-27T12:12:15.578Z,20.97
2019-01-27T12:17:22.218Z,18.87
2019-01-27T12:22:28.165Z,20.88
2019-01-27T12:27:33.780Z,32.25
2019-01-27T12:32:49.016Z,43.65
2019-01-27T12:37:54.623Z,20.37
2019-01-27T12:43:02.262Z,46.98
2019-01-27T12:48:06.559Z,32.58
2019-01-27T12:53:12.628Z,24.25
2019-01-27T12:58:17.113Z,14.50
2019-01-27T13:03:23.945Z,23.18
2019-01-27T13:08:28.225Z,15.75
2019-01-27T13:13:32.420Z,17.27
2019-01-27T13:18:36.461Z,16.67
2019-01-27T13:23:40.668Z,13.32
2019-01-27T13:28:44.807Z,15.50
2019-01-27T13:33:50.377Z,14.58
2019-01-27T13:38:54.416Z,23.00
2019-01-27T13:43:58.501Z,15.68
2019-01-27T13:49:02.682Z,18.32
2019-01-27T13:54:06.654Z,16.27
2019-01-27T14:01:26.552Z,22.73
2019-01-27T14:06:49.045Z,18.90
2019-01-27T14:12:12.919Z,25.95
2019-01-27T14:17:36.648Z,22.60
2019-01-27T14:24:42.565Z,28.98
2019-01-27T14:30:07.035Z,30.62
2019-01-27T14:35:29.515Z,26.60
2019-01-27T14:40:34.380Z,43.45
2019-01-27T14:45:39.819Z,31.25
2019-01-27T14:50:46.298Z,34.60
2019-01-27T14:55:50.306Z,37.48
2019-01-27T15:00:54.543Z,29.60
2019-01-27T15:05:59.461Z,36.08
2019-01-27T15:11:21.895Z,32.65
2019-01-27T15:16:26.275Z,22.22
2019-01-27T15:21:30.507Z,27.77
2019-01-27T15:26:35.509Z,28.12
2019-01-27T15:31:39.895Z,28.57
2019-01-27T15:41:40.428Z,20.27
2019-01-27T15:46:45.834Z,16.55
2019-01-27T15:51:49.583Z,19.42
2019-01-27T15:56:53.642Z,18.92
2019-01-27T16:01:57.408Z,18.80
2019-01-27T16:07:01.242Z,17.27
2019-01-27T16:12:05.640Z,17.00
2019-01-27T16:17:09.613Z,20.57
2019-01-27T16:22:14.306Z,19.20
2019-01-27T16:27:18.075Z,20.80
2019-01-27T16:32:34.965Z,22.17
2019-01-27T16:37:40.093Z,21.15
2019-01-27T16:42:44.409Z,28.12
2019-01-27T16:47:49.354Z,25.40
2019-01-27T16:53:03.983Z,25.40
2019-01-27T16:58:07.881Z,21.73
2019-01-27T17:03:11.662Z,27.27
2019-01-27T17:08:17.823Z,28.32
2019-01-27T17:13:22.974Z,41.45
2019-01-27T17:18:29.271Z,18.92
2019-01-27T17:23:34.110Z,20.68
2019-01-27T17:28:43.023Z,31.55
2019-01-27T17:33:56.000Z,21.00
2019-01-27T17:39:09.466Z,17.80
2019-01-27T17:44:15.598Z,19.32
2019-01-27T17:49:20.246Z,13.15
2019-01-27T17:54:26.789Z,13.72
2019-01-27T17:59:40.011Z,20.48
2019-01-27T18:04:53.643Z,19.17
2019-01-27T18:10:31.369Z,27.90
2019-01-27T18:15:44.008Z,35.58
2019-01-27T18:20:52.933Z,27.32
2019-01-27T18:25:58.717Z,24.07
2019-01-27T18:31:03.131Z,18.80
2019-01-27T18:36:09.680Z,28.60
2019-01-27T18:41:17.243Z,21.90
2019-01-27T18:46:22.085Z,26.90
2019-01-27T18:51:29.815Z,26.17
2019-01-27T18:57:05.648Z,23.52
2019-01-27T19:02:32.212Z,33.45
2019-01-27T19:08:01.165Z,37.60
2019-01-27T19:13:32.079Z,31.62
2019-01-27T19:19:03.316Z,26.65
2019-01-27T19:24:33.492Z,24.50
2019-01-27T19:30:02.625Z,23.25
2019-01-27T19:35:21.806Z,21.82
2019-01-27T19:40:45.821Z,30.48
2019-01-27T19:46:16.529Z,29.35
2019-01-27T19:51:43.668Z,30.97
2019-01-27T19:57:22.192Z,21.00
2019-01-27T20:02:36.708Z,28.42
2019-01-27T20:08:00.764Z,25.75
2019-01-27T20:13:17.041Z,25.12
2019-01-27T20:18:39.229Z,16.32
2019-01-27T20:23:55.853Z,19.42
2019-01-27T20:29:31.620Z,17.60
2019-01-27T20:35:10.872Z,21.10
2019-01-27T20:40:35.938Z,24.67
2019-01-27T20:45:59.064Z,27.73
2019-01-27T20:51:34.786Z,27.67
2019-01-27T20:56:45.485Z,23.25
2019-01-27T21:02:24.930Z,25.32
2019-01-27T21:08:00.854Z,30.43
2019-01-27T21:13:11.218Z,35.20
2019-01-27T21:18:26.859Z,23.90
2019-01-27T21:23:31.435Z,27.02
2019-01-27T21:28:36.469Z,26.73
2019-01-27T21:33:40.533Z,18.67
2019-01-27T21:38:45.721Z,20.12
2019-01-27T21:43:50.866Z,24.98
2019-01-27T21:48:58.002Z,28.30
2019-01-27T21:54:03.474Z,21.73
2019-01-27T21:59:07.795Z,21.75
2019-01-27T22:04:12.543Z,23.60
2019-01-27T22:09:18.122Z,24.63
2019-01-27T22:14:22.138Z,24.65
2019-01-27T22:19:26.703Z,21.90
2019-01-27T22:24:32.579Z,18.42
2019-01-27T22:29:37.783Z,29.35
2019-01-27T22:34:45.521Z,35.17
2019-01-27T22:39:50.543Z,34.98
2019-01-27T22:44:56.050Z,32.98
2019-01-27T22:50:01.633Z,31.52
2019-01-27T22:55:07.103Z,39.48
2019-01-27T23:00:21.503Z,50.17
2019-01-27T23:05:35.782Z,36.58
2019-01-27T23:10:40.246Z,32.38
2019-01-27T23:15:44.725Z,34.88
2019-01-27T23:20:48.575Z,31.57
2019-01-27T23:25:53.678Z,24.05
2019-01-27T23:31:01.939Z,21.20
2019-01-27T23:36:06.683Z,22.50
2019-01-27T23:41:11.247Z,23.92
2019-01-27T23:46:16.291Z,23.32
2019-01-27T23:51:22.294Z,22.10
2019-01-27T23:56:28.300Z,22.65
